Time;durP1;ratioP1;P1;durP2;ratioP2;P2;SDS_P1;SDS_P2;PMS_P1;PMS_P2;Temp;Humidity;BMP_temperature;BMP_pressure;BME280_temperature;BME280_humidity;BME280_pressure;Samples;Min_cycle;Max_cycle;Signal;HPM_P1;HPM_P2
2022/10/17 00:00:18;;;;;;;5.93;4.30;;;;;;;7.86;61.37;96097.97;5088752;28;20111;-73
2022/10/17 00:02:43;;;;;;;6.25;4.30;;;;;;;7.89;61.30;96096.06;5090978;28;20035;-73
2022/10/17 00:05:10;;;;;;;6.93;4.25;;;;;;;7.78;61.66;96099.19;5092686;28;20500;-73
2022/10/17 00:07:36;;;;;;;7.50;4.53;;;;;;;7.80;61.58;96088.75;5093887;28;20089;-72
2022/10/17 00:10:02;;;;;;;5.35;4.00;;;;;;;7.83;61.70;96088.63;5110144;28;20448;-72
2022/10/17 00:12:28;;;;;;;7.10;4.72;;;;;;;7.61;62.09;96092.31;5093175;28;20055;-72
2022/10/17 00:14:53;;;;;;;6.63;4.40;;;;;;;7.77;62.04;96101.84;5109529;28;20494;-71
2022/10/17 00:17:18;;;;;;;6.95;4.60;;;;;;;7.67;62.30;96104.09;5092599;28;20094;-71
2022/10/17 00:19:44;;;;;;;6.25;4.13;;;;;;;7.58;63.13;96105.38;5093978;28;20101;-71
2022/10/17 00:22:09;;;;;;;5.35;4.38;;;;;;;7.50;63.38;96097.19;5092391;28;20470;-72
2022/10/17 00:24:35;;;;;;;6.88;4.40;;;;;;;7.63;63.25;96106.88;5105955;28;20467;-72
2022/10/17 00:27:00;;;;;;;7.10;4.68;;;;;;;7.79;62.56;96108.63;5083288;28;20028;-71
2022/10/17 00:29:26;;;;;;;6.28;4.28;;;;;;;7.93;61.96;96107.91;5093972;28;20048;-71
2022/10/17 00:31:55;;;;;;;8.73;4.43;;;;;;;7.91;62.45;96107.19;5126511;27;20039;-71
2022/10/17 00:34:20;;;;;;;6.97;4.82;;;;;;;7.90;62.13;96095.13;5075641;28;20039;-71
2022/10/17 00:36:47;;;;;;;6.97;4.28;;;;;;;7.94;62.15;96107.00;5092520;28;20032;-72
2022/10/17 00:39:12;;;;;;;6.15;4.60;;;;;;;7.91;62.11;96109.75;5109406;28;20085;-71
2022/10/17 00:41:37;;;;;;;6.95;4.85;;;;;;;7.93;62.09;96102.72;5093525;28;20024;-72
2022/10/17 00:44:27;;;;;;;6.75;4.97;;;;;;;7.91;62.14;96096.81;5126380;27;20096;-72
2022/10/17 00:46:52;;;;;;;8.00;4.80;;;;;;;7.90;61.84;96102.06;5062177;28;20130;-71
2022/10/17 00:49:18;;;;;;;6.70;4.95;;;;;;;7.92;62.21;96108.00;5091583;28;20059;-72
2022/10/17 00:51:53;;;;;;;7.07;5.13;;;;;;;7.91;62.37;96116.66;5075483;28;20036;-72
2022/10/17 00:54:22;;;;;;;8.10;5.70;;;;;;;7.87;62.46;96116.00;5071682;28;20491;-71
2022/10/17 00:56:47;;;;;;;6.60;5.20;;;;;;;7.85;62.55;96117.81;5091914;28;20126;-72
2022/10/17 00:59:13;;;;;;;6.93;4.80;;;;;;;7.80;62.46;96112.03;5093568;28;20410;-71
2022/10/17 01:01:40;;;;;;;8.63;5.45;;;;;;;7.79;62.36;96102.63;5091651;28;20036;-71
2022/10/17 01:04:05;;;;;;;6.57;5.32;;;;;;;7.75;62.71;96109.69;5125725;27;20148;-71
2022/10/17 01:06:31;;;;;;;7.68;4.93;;;;;;;7.75;62.90;96114.88;5093170;28;20036;-71
2022/10/17 01:08:56;;;;;;;6.95;5.50;;;;;;;7.69;62.74;96101.41;5092706;28;20086;-71
2022/10/17 01:11:26;;;;;;;7.38;5.35;;;;;;;7.66;62.84;96091.22;5125906;27;20036;-71
2022/10/17 01:14:05;;;;;;;7.75;5.18;;;;;;;7.70;62.78;96103.09;5090723;28;20064;-71
2022/10/17 01:16:50;;;;;;;6.38;4.78;;;;;;;7.69;63.14;96106.56;5091726;28;20039;-71
2022/10/17 01:19:43;;;;;;;6.63;5.50;;;;;;;7.65;63.47;96111.06;5092514;28;20498;-72
2022/10/17 01:22:13;;;;;;;8.32;5.88;;;;;;;7.65;63.16;96099.91;5074611;28;20036;-72
2022/10/17 01:24:41;;;;;;;6.63;5.10;;;;;;;7.66;63.40;96110.19;5074962;28;20024;-72
2022/10/17 01:27:32;;;;;;;7.53;5.38;;;;;;;7.59;63.61;96101.88;5092457;28;20031;-72
2022/10/17 01:30:28;;;;;;;6.50;5.35;;;;;;;7.64;63.42;96103.41;5090996;28;20039;-71
2022/10/17 01:33:14;;;;;;;7.65;5.60;;;;;;;7.47;63.97;96112.03;5092508;28;20039;-72
2022/10/17 01:35:47;;;;;;;7.32;5.28;;;;;;;7.43;64.19;96110.47;5091403;28;20060;-71
2022/10/17 01:38:15;;;;;;;9.40;5.18;;;;;;;7.48;64.05;96104.16;5125563;27;20545;-71
2022/10/17 01:40:48;;;;;;;7.03;5.30;;;;;;;7.38;64.33;96110.69;5091259;28;20036;-72
2022/10/17 01:43:20;;;;;;;7.88;5.28;;;;;;;7.40;64.11;96111.47;5090953;28;20028;-71
2022/10/17 01:45:51;;;;;;;6.43;5.25;;;;;;;7.27;64.42;96116.44;5091453;28;20104;-72
2022/10/17 01:48:21;;;;;;;;;;;;;;;7.18;64.92;96116.84;5107756;28;20023;-71
2022/10/17 01:50:49;;;;;;;7.30;5.47;;;;;;;7.23;64.50;96126.97;5074182;28;19927;-72
2022/10/17 01:53:22;;;;;;;7.15;5.03;;;;;;;7.23;64.18;96119.22;5090796;28;20034;-72
2022/10/17 01:55:47;;;;;;;7.53;5.13;;;;;;;7.06;64.75;96112.28;5107782;28;20036;-71
2022/10/17 01:58:20;;;;;;;9.40;5.72;;;;;;;7.09;64.91;96112.16;5073785;28;20089;-72
2022/10/17 02:00:45;;;;;;;6.97;5.25;;;;;;;7.10;64.69;96114.66;5091075;28;20039;-72
2022/10/17 02:03:16;;;;;;;6.57;5.05;;;;;;;7.10;64.75;96126.72;5073809;28;20032;-71
2022/10/17 02:05:42;;;;;;;9.43;5.60;;;;;;;7.12;65.05;96130.09;5124328;27;20413;-72
2022/10/17 02:08:07;;;;;;;10.10;6.05;;;;;;;6.90;65.64;96133.69;5105198;28;20033;-71
2022/10/17 02:10:42;;;;;;;11.30;5.82;;;;;;;6.79;66.31;96132.53;5124805;27;20036;-71
2022/10/17 02:13:35;;;;;;;7.20;5.63;;;;;;;7.07;65.28;96129.47;5091628;28;20032;-71
2022/10/17 02:16:19;;;;;;;7.07;5.72;;;;;;;6.80;66.17;96135.03;5091708;28;20036;-71
2022/10/17 02:18:50;;;;;;;6.78;5.45;;;;;;;6.64;66.91;96126.34;5091455;28;20536;-72
2022/10/17 02:21:24;;;;;;;7.93;5.78;;;;;;;6.64;67.07;96131.50;5089497;28;20032;-72
2022/10/17 02:23:56;;;;;;;7.75;5.63;;;;;;;6.58;67.12;96130.03;5090453;28;20028;-72
2022/10/17 02:26:32;;;;;;;7.75;5.85;;;;;;;6.71;66.81;96136.31;5106043;28;20055;-71
2022/10/17 02:29:27;;;;;;;7.57;5.88;;;;;;;6.64;66.99;96142.66;5106716;28;20040;-72
2022/10/17 02:31:58;;;;;;;8.10;5.50;;;;;;;6.69;67.23;96140.72;5085559;28;20176;-71
2022/10/17 02:34:30;;;;;;;8.93;5.70;;;;;;;6.57;67.27;96140.41;5070361;28;20505;-72
2022/10/17 02:36:57;;;;;;;6.32;4.90;;;;;;;6.54;67.51;96143.16;5095111;28;20414;-71
2022/10/17 02:39:23;;;;;;;8.32;5.53;;;;;;;6.69;66.97;96151.03;5090479;28;20474;-71
2022/10/17 02:41:49;;;;;;;8.05;5.25;;;;;;;6.78;66.57;96138.59;5072921;28;20028;-71
2022/10/17 02:44:14;;;;;;;8.27;6.00;;;;;;;6.89;65.97;96138.94;5073489;28;20040;-71
2022/10/17 02:46:40;;;;;;;9.10;6.00;;;;;;;6.90;66.20;96144.00;5089605;28;20035;-71
2022/10/17 02:49:20;;;;;;;10.85;5.35;;;;;;;6.80;65.95;96126.44;5089603;28;20043;-71
2022/10/17 02:52:03;;;;;;;8.10;5.63;;;;;;;6.83;66.36;96144.41;5072939;28;20028;-71
2022/10/17 02:54:36;;;;;;;7.95;5.28;;;;;;;6.82;66.27;96150.44;5105201;28;20040;-71
2022/10/17 02:57:31;;;;;;;7.63;5.85;;;;;;;6.79;66.11;96155.75;5123396;27;20463;-71
2022/10/17 02:59:57;;;;;;;8.20;5.65;;;;;;;6.64;66.69;96163.31;5089878;28;20536;-71
2022/10/17 03:02:23;;;;;;;7.10;5.57;;;;;;;6.77;66.35;96167.91;5106534;28;20036;-71
2022/10/17 03:04:48;;;;;;;8.35;5.50;;;;;;;6.61;65.74;96129.06;5089388;28;20035;-71
2022/10/17 03:07:14;;;;;;;6.55;5.35;;;;;;;6.75;66.07;96167.16;5086349;28;20028;-71
2022/10/17 03:09:39;;;;;;;9.35;5.60;;;;;;;6.45;66.40;96131.50;5116230;27;20039;-71
2022/10/17 03:12:05;;;;;;;9.90;6.25;;;;;;;6.67;66.17;96170.09;5090282;28;20047;-71
2022/10/17 03:14:30;;;;;;;6.88;5.22;;;;;;;6.66;66.58;96176.19;5123912;27;20028;-71
2022/10/17 03:16:55;;;;;;;8.10;5.50;;;;;;;6.51;67.17;96177.69;5090445;28;20463;-71
2022/10/17 03:19:21;;;;;;;8.88;5.80;;;;;;;6.59;66.38;96174.75;5124013;27;20047;-71
2022/10/17 03:21:46;;;;;;;10.20;5.88;;;;;;;6.49;66.97;96174.31;5123364;27;20085;-71
2022/10/17 03:24:12;;;;;;;8.70;5.95;;;;;;;6.46;66.90;96183.06;5072626;28;20195;-72
2022/10/17 03:26:37;;;;;;;8.27;6.18;;;;;;;6.41;67.36;96187.59;5069220;28;20024;-71
2022/10/17 03:29:03;;;;;;;7.95;5.68;;;;;;;6.41;67.04;96181.59;5064521;28;20033;-71
2022/10/17 03:31:28;;;;;;;7.22;5.32;;;;;;;6.44;66.86;96184.03;5093753;28;20081;-71
2022/10/17 03:33:54;;;;;;;8.60;6.13;;;;;;;6.43;66.75;96179.78;5089014;28;20036;-71
2022/10/17 03:36:19;;;;;;;9.68;6.03;;;;;;;6.43;66.70;96183.19;5089491;28;20035;-71
2022/10/17 03:38:45;;;;;;;7.97;5.28;;;;;;;6.45;66.83;96183.97;5093401;28;20028;-72
2022/10/17 03:41:10;;;;;;;6.57;5.43;;;;;;;6.20;67.41;96183.38;5093239;28;20035;-72
2022/10/17 03:43:36;;;;;;;8.10;5.45;;;;;;;6.24;67.34;96185.78;5093248;28;20062;-71
2022/10/17 03:46:01;;;;;;;7.93;5.95;;;;;;;6.16;67.40;96171.53;5127353;27;20043;-71
2022/10/17 03:48:27;;;;;;;7.88;6.00;;;;;;;6.25;66.98;96189.19;5076173;28;20523;-72
2022/10/17 03:51:01;;;;;;;8.57;6.25;;;;;;;6.17;67.42;96192.09;5093234;28;20040;-71
2022/10/17 03:53:26;;;;;;;10.02;5.82;;;;;;;5.87;68.15;96181.31;5093211;28;20038;-72
2022/10/17 03:55:52;;;;;;;7.32;5.78;;;;;;;6.02;68.37;96195.34;5093346;28;20024;-71
2022/10/17 03:58:18;;;;;;;8.50;5.97;;;;;;;6.06;68.17;96196.88;5106414;28;20024;-71
2022/10/17 04:00:43;;;;;;;8.52;6.00;;;;;;;5.82;68.81;96191.84;5127338;27;20047;-71
2022/10/17 04:03:09;;;;;;;8.55;5.95;;;;;;;5.96;68.71;96190.44;5093331;28;20032;-71
2022/10/17 04:05:34;;;;;;;7.38;5.85;;;;;;;6.07;68.19;96198.53;5092828;28;20040;-71
2022/10/17 04:08:00;;;;;;;7.13;5.63;;;;;;;5.63;68.80;96170.31;5094139;28;20050;-71
2022/10/17 04:10:25;;;;;;;7.57;5.88;;;;;;;5.88;68.91;96195.03;5094006;28;20063;-71
2022/10/17 04:12:50;;;;;;;7.93;6.30;;;;;;;5.77;69.00;96201.50;5094051;28;20086;-71
2022/10/17 04:15:16;;;;;;;9.30;5.90;;;;;;;5.66;68.80;96197.72;5126646;27;20456;-71
2022/10/17 04:17:41;;;;;;;9.68;6.07;;;;;;;5.60;68.96;96185.91;5092693;28;20402;-71
2022/10/17 04:20:07;;;;;;;8.32;6.13;;;;;;;5.66;68.94;96203.69;5093677;28;20097;-72
2022/10/17 04:22:33;;;;;;;9.93;6.10;;;;;;;5.62;69.18;96202.13;5092782;28;20081;-71
2022/10/17 04:24:58;;;;;;;9.30;6.93;;;;;;;5.60;68.76;96202.22;5092659;28;20051;-71
2022/10/17 04:27:24;;;;;;;12.88;8.32;;;;;;;5.65;68.71;96196.84;5093746;28;20032;-71
2022/10/17 04:29:49;;;;;;;11.60;8.18;;;;;;;5.58;69.03;96208.31;5093674;28;20036;-71
2022/10/17 04:32:14;;;;;;;12.10;7.20;;;;;;;5.51;68.96;96205.13;5092117;28;20028;-71
2022/10/17 04:34:40;;;;;;;8.00;6.15;;;;;;;5.49;68.85;96212.13;5092279;28;20043;-71
2022/10/17 04:37:05;;;;;;;9.68;7.20;;;;;;;5.34;69.09;96192.09;5126617;27;20567;-71
2022/10/17 04:39:31;;;;;;;15.30;7.28;;;;;;;5.23;69.74;96204.59;5092600;28;20440;-71
2022/10/17 04:41:56;;;;;;;11.20;7.93;;;;;;;5.36;69.57;96208.34;5126245;27;20035;-71
2022/10/17 04:44:22;;;;;;;10.25;7.53;;;;;;;5.28;69.02;96208.66;5093554;28;20025;-71
2022/10/17 04:46:48;;;;;;;10.52;7.28;;;;;;;5.13;69.52;96209.28;5092267;28;20490;-71
2022/10/17 04:49:13;;;;;;;10.07;6.90;;;;;;;5.11;69.71;96217.06;5091445;28;20036;-71
2022/10/17 04:51:39;;;;;;;15.45;6.80;;;;;;;5.07;69.81;96219.78;5092396;28;20032;-71
2022/10/17 04:54:04;;;;;;;7.80;6.10;;;;;;;5.09;69.68;96228.31;5093702;28;20032;-71
2022/10/17 04:56:29;;;;;;;9.27;5.97;;;;;;;4.92;70.13;96205.78;5093599;28;20035;-71
2022/10/17 04:58:55;;;;;;;10.30;6.28;;;;;;;5.00;70.31;96233.81;5075430;28;20533;-71
2022/10/17 05:01:21;;;;;;;8.60;6.63;;;;;;;4.88;70.60;96235.97;5092311;28;20024;-71
2022/10/17 05:03:47;;;;;;;7.60;6.30;;;;;;;4.82;70.77;96228.47;5092118;28;20035;-71
2022/10/17 05:06:20;;;;;;;7.43;6.05;;;;;;;4.84;70.97;96226.66;5075358;28;20107;-71
2022/10/17 05:08:46;;;;;;;16.92;8.60;;;;;;;4.74;71.19;96238.22;5075414;28;20154;-71
2022/10/17 05:11:22;;;;;;;17.58;10.63;;;;;;;4.70;71.12;96242.63;5075160;28;20043;-71
2022/10/17 05:13:58;;;;;;;29.42;15.80;;;;;;;4.56;71.21;96236.31;5093337;28;20077;-71
2022/10/17 05:16:23;;;;;;;41.28;21.20;;;;;;;4.53;71.29;96250.13;5076144;28;20529;-71
2022/10/17 05:18:50;;;;;;;28.73;15.50;;;;;;;4.51;71.72;96248.50;5091900;28;20052;-71
2022/10/17 05:21:15;;;;;;;52.60;24.40;;;;;;;4.45;71.99;96255.56;5091963;28;20039;-71
2022/10/17 05:23:41;;;;;;;48.33;19.92;;;;;;;4.48;72.12;96258.03;5074894;28;20028;-71
2022/10/17 05:26:06;;;;;;;38.88;14.85;;;;;;;4.44;71.92;96241.03;5093057;28;20050;-71
2022/10/17 05:28:33;;;;;;;30.58;13.00;;;;;;;4.56;72.05;96262.06;5088340;28;20531;-71
2022/10/17 05:31:02;;;;;;;25.45;12.90;;;;;;;4.48;72.68;96255.47;5089803;28;20028;-71
2022/10/17 05:33:27;;;;;;;49.05;17.67;;;;;;;4.58;72.89;96265.44;5089837;28;20156;-71
2022/10/17 05:35:53;;;;;;;55.40;22.98;;;;;;;4.78;71.53;96262.94;5092073;28;20032;-71
2022/10/17 05:38:18;;;;;;;65.60;26.75;;;;;;;4.62;72.21;96256.69;5090074;28;20024;-71
2022/10/17 05:40:44;;;;;;;18.00;10.10;;;;;;;4.64;72.46;96263.47;5089981;28;20040;-71
2022/10/17 05:43:09;;;;;;;13.50;8.35;;;;;;;4.72;72.17;96258.03;5090452;28;20016;-71
2022/10/17 05:45:35;;;;;;;12.18;7.18;;;;;;;4.56;72.46;96257.75;5092076;28;20032;-71
2022/10/17 05:48:00;;;;;;;8.75;6.63;;;;;;;4.58;72.60;96261.09;5090570;28;20036;-71
2022/10/17 05:50:26;;;;;;;10.90;6.93;;;;;;;4.61;72.93;96268.72;5092143;28;20036;-71
2022/10/17 05:52:54;;;;;;;15.50;6.82;;;;;;;4.72;72.60;96270.91;5090735;28;20028;-71
2022/10/17 05:55:20;;;;;;;11.48;7.70;;;;;;;4.48;72.75;96252.03;5090908;28;20409;-71
2022/10/17 05:57:45;;;;;;;10.00;7.70;;;;;;;4.58;73.52;96284.28;5074036;28;20135;-71
2022/10/17 06:00:12;;;;;;;10.60;7.25;;;;;;;4.55;73.68;96284.38;5091847;28;20424;-71
2022/10/17 06:02:37;;;;;;;12.65;7.30;;;;;;;4.69;73.83;96281.31;5091800;28;20506;-71
2022/10/17 06:05:03;;;;;;;10.30;7.55;;;;;;;4.72;73.65;96294.06;5091856;28;20040;-71
2022/10/17 06:07:28;;;;;;;19.23;11.68;;;;;;;4.81;73.65;96288.59;5090793;28;20089;-71
2022/10/17 06:09:53;;;;;;;60.42;40.15;;;;;;;4.80;73.68;96294.63;5091576;28;20036;-71
2022/10/17 06:12:19;;;;;;;59.92;43.15;;;;;;;4.82;73.73;96290.28;5090750;28;20085;-71
2022/10/17 06:14:44;;;;;;;26.15;19.17;;;;;;;4.91;73.91;96301.97;5092468;28;20051;-72
2022/10/17 06:17:10;;;;;;;14.05;10.05;;;;;;;5.26;73.42;96287.75;5090264;28;20027;-71
2022/10/17 06:19:35;;;;;;;13.13;9.68;;;;;;;6.26;71.58;96300.06;5090113;28;20032;-71
2022/10/17 06:22:01;;;;;;;13.20;9.65;;;;;;;7.11;67.86;96299.81;5090380;28;20570;-71
2022/10/17 06:24:26;;;;;;;11.90;8.43;;;;;;;8.12;64.67;96303.69;5091669;28;20069;-71
2022/10/17 06:26:52;;;;;;;9.30;6.78;;;;;;;9.12;61.42;96302.00;5089655;28;20028;-72
2022/10/17 06:29:17;;;;;;;7.43;6.40;;;;;;;9.95;58.24;96307.84;5091058;28;20044;-72
2022/10/17 06:31:43;;;;;;;10.48;7.47;;;;;;;10.78;55.83;96301.28;5090595;28;20023;-72
2022/10/17 06:34:08;;;;;;;12.80;10.52;;;;;;;11.42;53.63;96273.03;5089847;28;20043;-72
2022/10/17 06:36:34;;;;;;;9.25;7.68;;;;;;;12.32;51.54;96307.25;5123987;27;20407;-72
2022/10/17 06:38:59;;;;;;;9.35;6.68;;;;;;;12.83;49.49;96283.81;5089467;28;20124;-72
2022/10/17 06:41:25;;;;;;;11.27;8.07;;;;;;;13.30;47.89;96293.59;5124106;27;20028;-72
2022/10/17 06:43:50;;;;;;;9.77;7.05;;;;;;;13.85;46.96;96304.50;5089895;28;20032;-72
2022/10/17 06:46:16;;;;;;;10.60;8.60;;;;;;;14.23;45.67;96309.53;5091037;28;20016;-72
2022/10/17 06:48:42;;;;;;;15.07;9.40;;;;;;;14.53;45.04;96295.97;5072857;28;20027;-72
2022/10/17 06:51:10;;;;;;;10.77;8.27;;;;;;;15.05;44.12;96298.22;5089701;28;20032;-72
2022/10/17 06:53:36;;;;;;;10.60;8.35;;;;;;;15.51;43.16;96302.44;5089794;28;20027;-72
2022/10/17 06:56:03;;;;;;;13.55;8.25;;;;;;;16.25;41.58;96297.41;5072648;28;20205;-72
2022/10/17 06:58:33;;;;;;;11.93;6.82;;;;;;;16.59;40.84;96299.84;5091010;28;20077;-72
2022/10/17 07:01:02;;;;;;;16.95;10.00;;;;;;;16.76;40.11;96294.00;5089472;28;20490;-72
2022/10/17 07:03:28;;;;;;;14.15;8.68;;;;;;;16.89;39.90;96288.59;5089740;28;20028;-72
2022/10/17 07:05:54;;;;;;;15.00;9.98;;;;;;;16.96;39.46;96295.81;5072913;28;20101;-72
2022/10/17 07:08:19;;;;;;;13.75;10.77;;;;;;;17.28;38.76;96294.84;5056251;28;20022;-73
2022/10/17 07:10:45;;;;;;;13.80;9.60;;;;;;;17.66;38.60;96288.03;5089433;28;20032;-72
2022/10/17 07:13:10;;;;;;;14.85;10.05;;;;;;;18.59;36.77;96296.44;5089796;28;20024;-72
2022/10/17 07:15:36;;;;;;;13.45;10.55;;;;;;;18.97;36.27;96300.81;5089819;28;20035;-72
2022/10/17 07:18:02;;;;;;;20.65;10.00;;;;;;;18.83;35.90;96304.72;5089198;28;20052;-72
2022/10/17 07:20:27;;;;;;;15.73;10.43;;;;;;;18.93;35.75;96302.06;5089635;28;20062;-72
2022/10/17 07:22:53;;;;;;;17.08;10.05;;;;;;;19.63;34.39;96298.03;5068278;28;20494;-71
2022/10/17 07:25:18;;;;;;;10.52;7.45;;;;;;;19.76;33.06;96296.91;5086328;28;20040;-72
2022/10/17 07:27:43;;;;;;;12.75;9.25;;;;;;;20.08;33.05;96296.41;5088509;28;20028;-73
2022/10/17 07:54:14;;;;;;;14.90;10.63;;;;;;;24.70;26.36;96300.06;5183112;27;20441;-72
2022/10/17 07:56:39;;;;;;;14.15;9.90;;;;;;;24.28;26.92;96293.38;5149231;27;20457;-73
2022/10/17 07:59:05;;;;;;;17.13;9.70;;;;;;;24.78;26.52;96293.88;5128722;27;20028;-74
2022/10/17 08:01:30;;;;;;;14.85;9.95;;;;;;;24.15;26.69;96296.59;5128569;28;20389;-74
2022/10/17 08:03:56;;;;;;;14.45;9.82;;;;;;;22.47;29.31;96297.56;5128346;28;20444;-74
2022/10/17 08:06:21;;;;;;;13.35;9.75;;;;;;;21.38;31.00;96295.78;5126872;28;20030;-73
2022/10/17 08:08:46;;;;;;;12.65;9.93;;;;;;;20.82;31.80;96289.97;5126877;28;20047;-74
2022/10/17 08:11:13;;;;;;;12.40;9.45;;;;;;;20.27;33.50;96287.53;5127336;28;20024;-73
2022/10/17 08:13:39;;;;;;;16.00;9.88;;;;;;;19.14;34.60;96276.38;5110218;28;20132;-74
2022/10/17 08:16:06;;;;;;;12.18;9.93;;;;;;;18.48;36.31;96292.16;5127040;27;20096;-73
2022/10/17 08:18:32;;;;;;;12.63;9.38;;;;;;;18.14;37.12;96284.69;5127371;28;20504;-73
2022/10/17 08:20:59;;;;;;;15.10;10.02;;;;;;;18.08;37.40;96277.38;5126903;28;20027;-73
2022/10/17 08:23:24;;;;;;;19.30;10.25;;;;;;;17.92;38.23;96285.78;5110342;28;20035;-70
2022/10/17 08:25:50;;;;;;;11.55;8.80;;;;;;;17.90;37.58;96261.44;5109224;28;20035;-72
2022/10/17 08:28:15;;;;;;;15.85;9.35;;;;;;;17.86;37.31;96253.00;5126932;28;20035;-73
2022/10/17 08:30:40;;;;;;;12.95;8.93;;;;;;;17.74;37.92;96280.31;5126790;28;20036;-70
2022/10/17 08:33:06;;;;;;;14.25;8.35;;;;;;;17.75;37.91;96276.75;5109947;28;20035;-76
2022/10/17 08:35:32;;;;;;;12.70;8.15;;;;;;;17.59;37.97;96276.44;5127847;28;20020;-73
2022/10/17 08:38:00;;;;;;;11.20;8.57;;;;;;;17.49;37.70;96270.31;5109935;28;20488;-74
2022/10/17 08:40:27;;;;;;;15.45;10.02;;;;;;;17.37;37.89;96280.91;5127752;28;20032;-74
2022/10/17 08:43:29;;;;;;;18.38;9.13;;;;;;;17.41;37.86;96279.69;5109571;28;20116;-74
2022/10/17 08:46:02;;;;;;;11.75;8.88;;;;;;;17.34;38.04;96283.00;5111794;28;20039;-74
2022/10/17 08:48:31;;;;;;;16.15;8.45;;;;;;;17.28;37.66;96281.72;5102530;28;20035;-74
2022/10/17 08:51:01;;;;;;;19.15;12.00;;;;;;;17.36;38.19;96287.16;5108912;28;20126;-74
2022/10/17 08:53:31;;;;;;;17.75;9.35;;;;;;;17.29;37.78;96280.75;5102819;28;20138;-74
2022/10/17 08:55:58;;;;;;;11.35;7.10;;;;;;;17.22;36.68;96279.63;5093029;28;20568;-74
2022/10/17 08:58:26;;;;;;;11.75;7.90;;;;;;;17.34;36.57;96286.44;5075793;28;20032;-74
2022/10/17 09:01:32;;;;;;;15.07;6.72;;;;;;;17.27;35.65;96281.84;5097179;28;20057;-74
2022/10/17 09:04:04;;;;;;;11.70;8.00;;;;;;;17.40;36.63;96285.91;5106913;28;20487;-74
2022/10/17 09:06:34;;;;;;;11.63;7.18;;;;;;;17.42;35.89;96281.34;5092851;28;20043;-72
2022/10/17 09:09:08;;;;;;;7.80;5.55;;;;;;;17.17;33.68;96287.91;5073997;28;20028;-73
2022/10/17 09:11:56;;;;;;;8.77;4.68;;;;;;;17.25;33.23;96284.63;5120172;27;20027;-73
2022/10/17 09:14:33;;;;;;;7.40;4.88;;;;;;;17.38;33.39;96282.59;5100938;28;20524;-74
2022/10/17 09:17:30;;;;;;;6.15;4.72;;;;;;;17.31;32.36;96285.88;5092948;28;20656;-73
2022/10/17 09:20:11;;;;;;;5.07;3.97;;;;;;;17.21;31.30;96277.94;5078310;28;20039;-73
2022/10/17 09:22:40;;;;;;;8.07;4.15;;;;;;;17.31;32.66;96285.88;5116503;27;20032;-73
2022/10/17 09:25:10;;;;;;;5.07;4.07;;;;;;;17.20;32.47;96281.56;5095201;28;20497;-73
2022/10/17 09:27:39;;;;;;;5.90;3.65;;;;;;;16.88;31.88;96279.91;5095030;28;20035;-73
2022/10/17 09:30:34;;;;;;;9.07;3.72;;;;;;;16.79;31.17;96282.47;5095386;28;20489;-73
2022/10/17 09:33:00;;;;;;;4.78;3.20;;;;;;;16.72;31.98;96271.63;5113361;28;20032;-73
2022/10/17 09:35:26;;;;;;;5.30;3.60;;;;;;;16.96;32.83;96277.44;5094982;28;20076;-74
2022/10/17 09:37:52;;;;;;;4.20;3.00;;;;;;;17.14;31.76;96277.66;5094927;28;20039;-73
2022/10/17 09:40:32;;;;;;;3.72;2.90;;;;;;;17.16;31.03;96269.63;5112088;28;20035;-73
2022/10/17 09:42:57;;;;;;;3.75;3.05;;;;;;;16.98;31.25;96275.50;5096527;28;20428;-73
2022/10/17 09:45:24;;;;;;;4.50;3.05;;;;;;;17.07;31.04;96280.94;5112834;28;20023;-74
2022/10/17 09:48:20;;;;;;;3.67;2.67;;;;;;;17.18;31.40;96263.28;5111824;27;20023;-73
2022/10/17 09:50:45;;;;;;;4.55;3.00;;;;;;;17.04;30.38;96247.06;5080729;28;20096;-73
2022/10/17 09:53:17;;;;;;;3.75;2.83;;;;;;;17.14;29.93;96271.59;5094317;28;20539;-73
2022/10/17 09:55:47;;;;;;;4.38;2.95;;;;;;;17.18;30.26;96276.41;5094871;28;20030;-74
2022/10/17 09:58:12;;;;;;;4.68;2.60;;;;;;;17.12;30.21;96268.25;5111850;27;20047;-74
2022/10/17 10:00:39;;;;;;;3.80;2.50;;;;;;;17.19;29.69;96257.09;5113080;28;20024;-74
2022/10/17 10:03:18;;;;;;;8.00;3.13;;;;;;;17.39;30.35;96259.78;5094433;28;20507;-74
2022/10/17 10:06:04;;;;;;;4.85;2.67;;;;;;;17.55;31.01;96260.09;5110235;28;20039;-73
2022/10/17 10:08:31;;;;;;;5.50;3.13;;;;;;;17.38;30.40;96253.72;5112173;28;20492;-73
2022/10/17 10:11:03;;;;;;;5.90;3.60;;;;;;;17.33;31.46;96255.06;5094296;28;20488;-73
2022/10/17 10:13:28;;;;;;;6.20;3.17;;;;;;;17.50;31.45;96257.06;5095001;28;20024;-74
2022/10/17 10:15:54;;;;;;;4.22;3.10;;;;;;;17.61;31.94;96253.47;5111044;28;20065;-73
2022/10/17 10:18:35;;;;;;;4.70;3.00;;;;;;;17.71;31.39;96250.84;5094091;28;20028;-74
2022/10/17 10:21:14;;;;;;;8.73;3.13;;;;;;;17.65;30.54;96249.59;5111176;28;20061;-74
2022/10/17 10:23:41;;;;;;;5.95;3.22;;;;;;;17.61;31.20;96222.78;5112365;28;20088;-74
2022/10/17 10:26:21;;;;;;;5.95;3.05;;;;;;;17.49;30.55;96246.66;5093980;28;20034;-73
2022/10/17 10:28:54;;;;;;;4.05;2.88;;;;;;;17.01;31.18;96244.72;5110685;28;20027;-73
2022/10/17 10:31:34;;;;;;;7.05;3.03;;;;;;;17.29;30.63;96241.34;5093962;28;20474;-74
2022/10/17 10:34:02;;;;;;;5.35;3.33;;;;;;;17.52;30.96;96233.25;5112115;27;20028;-73
2022/10/17 10:36:44;;;;;;;4.93;3.25;;;;;;;17.59;31.86;96229.13;5093750;28;20110;-73
2022/10/17 10:39:41;;;;;;;4.38;3.00;;;;;;;17.55;30.93;96232.97;5093823;28;20043;-74
2022/10/17 10:42:16;;;;;;;6.40;3.75;;;;;;;17.73;31.68;96236.63;5108631;28;20043;-74
2022/10/17 10:44:42;;;;;;;19.73;10.48;;;;;;;17.94;30.93;96227.78;5110476;28;20024;-74
2022/10/17 10:47:14;;;;;;;10.70;6.25;;;;;;;18.03;31.84;96237.50;5110277;28;20034;-74
2022/10/17 10:49:39;;;;;;;5.57;3.45;;;;;;;18.07;29.89;96223.09;5111507;28;20525;-74
2022/10/17 10:52:05;;;;;;;5.35;3.33;;;;;;;18.14;31.10;96213.69;5093454;28;20076;-74
2022/10/17 10:54:36;;;;;;;5.03;3.20;;;;;;;17.93;30.50;96221.72;5093514;28;20382;-74
2022/10/17 10:57:03;;;;;;;3.50;3.00;;;;;;;17.78;30.20;96225.69;5109942;28;20462;-74
2022/10/17 10:59:34;;;;;;;5.45;2.88;;;;;;;17.67;30.53;96216.16;5093466;28;20023;-74
2022/10/17 11:02:03;;;;;;;;;;;;;;;18.04;30.26;96215.50;5110819;28;20036;-74
2022/10/17 11:04:43;;;;;;;4.50;3.25;;;;;;;18.13;30.53;96217.28;5111341;28;19912;-75
2022/10/17 11:07:18;;;;;;;5.10;3.55;;;;;;;18.27;30.95;96210.75;5111163;28;20035;-74
2022/10/17 11:10:00;;;;;;;5.50;3.20;;;;;;;18.24;30.85;96196.09;5093064;28;20019;-74
2022/10/17 11:12:38;;;;;;;6.53;3.40;;;;;;;18.40;31.21;96207.84;5110155;28;20032;-74
2022/10/17 11:15:17;;;;;;;5.57;3.05;;;;;;;18.46;31.08;96207.28;5109690;28;20081;-74
2022/10/17 11:17:56;;;;;;;6.47;2.85;;;;;;;18.54;30.53;96197.69;5109946;28;20035;-74
2022/10/17 11:20:31;;;;;;;5.47;3.30;;;;;;;18.60;30.66;96188.41;5093268;28;20386;-74
2022/10/17 11:23:19;;;;;;;4.45;3.17;;;;;;;18.53;29.92;96187.31;5093884;28;20267;-74
2022/10/17 11:25:45;;;;;;;5.05;3.17;;;;;;;18.67;29.83;96189.50;5109607;28;20081;-74
2022/10/17 11:28:18;;;;;;;4.20;3.00;;;;;;;18.67;28.87;96199.19;5109883;28;20066;-74
2022/10/17 11:31:13;;;;;;;5.40;2.83;;;;;;;18.70;29.58;96183.94;5109680;28;20036;-74
2022/10/17 11:34:00;;;;;;;4.63;3.20;;;;;;;18.63;29.28;96185.47;5110245;28;20036;-74
2022/10/17 11:36:30;;;;;;;4.15;2.80;;;;;;;18.77;29.57;96188.66;5110459;27;20028;-74
2022/10/17 11:38:59;;;;;;;4.60;2.90;;;;;;;18.64;28.99;96181.88;5092974;28;20462;-74
2022/10/17 11:41:30;;;;;;;4.78;3.00;;;;;;;18.81;29.02;96190.03;5093128;28;20274;-74
2022/10/17 11:44:06;;;;;;;7.45;3.10;;;;;;;18.81;29.70;96182.97;5092711;28;20419;-74
2022/10/17 11:46:32;;;;;;;4.18;2.78;;;;;;;18.72;27.96;96179.38;5110526;28;20481;-74
2022/10/17 11:49:15;;;;;;;4.30;3.38;;;;;;;18.83;28.31;96173.09;5092729;28;20035;-74
2022/10/17 11:51:50;;;;;;;4.93;2.92;;;;;;;18.96;29.34;96178.03;5109378;28;20015;-74
2022/10/17 11:54:23;;;;;;;5.25;3.00;;;;;;;19.00;29.23;96163.63;5109818;28;20067;-74
2022/10/17 11:57:18;;;;;;;4.45;2.72;;;;;;;18.90;28.27;96162.84;5109339;28;20039;-74
2022/10/17 12:00:02;;;;;;;4.65;3.00;;;;;;;18.92;28.21;96164.34;5109805;28;20032;-74
2022/10/17 12:02:40;;;;;;;3.92;2.80;;;;;;;18.94;28.34;96165.03;5110864;28;20039;-74
2022/10/17 12:05:17;;;;;;;5.28;3.00;;;;;;;19.09;29.02;96157.47;5109462;28;20032;-74
2022/10/17 12:07:45;;;;;;;4.70;2.85;;;;;;;19.06;28.29;96163.03;5110891;28;20054;-74
2022/10/17 12:10:32;;;;;;;5.05;3.13;;;;;;;19.18;28.41;96161.84;5110717;28;20028;-74